sensor_id;sensor_type;location;lat;lon;timestamp;pressure;altitude;pressure_sealevel;temperature;humidity
66857;BME280;53766;50.280;19.160;2022-07-26T00:01:56;97803.84;;;27.15;32.43
66857;BME280;53766;50.280;19.160;2022-07-26T00:04:24;97797.38;;;27.16;32.49
66857;BME280;53766;50.280;19.160;2022-07-26T00:06:51;97794.41;;;27.12;32.60
66857;BME280;53766;50.280;19.160;2022-07-26T00:09:19;97790.34;;;27.09;32.50
66857;BME280;53766;50.280;19.160;2022-07-26T00:11:46;97792.53;;;27.07;32.65
66857;BME280;53766;50.280;19.160;2022-07-26T00:14:14;97794.13;;;27.08;32.74
66857;BME280;53766;50.280;19.160;2022-07-26T00:16:41;97801.69;;;27.06;32.90
66857;BME280;53766;50.280;19.160;2022-07-26T00:19:09;97803.34;;;27.07;32.73
66857;BME280;53766;50.280;19.160;2022-07-26T00:21:37;97798.47;;;27.04;32.75
66857;BME280;53766;50.280;19.160;2022-07-26T00:24:07;97809.31;;;26.99;32.83
66857;BME280;53766;50.280;19.160;2022-07-26T00:26:35;97803.38;;;26.97;32.78
66857;BME280;53766;50.280;19.160;2022-07-26T00:29:03;97803.63;;;26.96;32.92
66857;BME280;53766;50.280;19.160;2022-07-26T00:31:32;97808.78;;;26.97;32.99
66857;BME280;53766;50.280;19.160;2022-07-26T00:34:00;97809.88;;;26.96;33.15
66857;BME280;53766;50.280;19.160;2022-07-26T00:36:27;97807.69;;;26.98;33.10
66857;BME280;53766;50.280;19.160;2022-07-26T00:38:56;97800.66;;;26.97;33.09
66857;BME280;53766;50.280;19.160;2022-07-26T00:41:23;97804.47;;;26.96;33.29
66857;BME280;53766;50.280;19.160;2022-07-26T00:43:55;97801.75;;;26.96;33.20
66857;BME280;53766;50.280;19.160;2022-07-26T00:46:23;97802.28;;;26.98;33.30
66857;BME280;53766;50.280;19.160;2022-07-26T00:48:51;97790.38;;;26.99;33.22
66857;BME280;53766;50.280;19.160;2022-07-26T00:51:20;97788.78;;;26.98;33.19
66857;BME280;53766;50.280;19.160;2022-07-26T00:53:48;97770.94;;;26.97;33.41
66857;BME280;53766;50.280;19.160;2022-07-26T00:56:16;97772.84;;;26.97;33.23
66857;BME280;53766;50.280;19.160;2022-07-26T00:58:44;97775.28;;;26.93;33.20
66857;BME280;53766;50.280;19.160;2022-07-26T01:01:12;97769.06;;;26.93;33.50
66857;BME280;53766;50.280;19.160;2022-07-26T01:03:40;97767.47;;;26.92;33.18
66857;BME280;53766;50.280;19.160;2022-07-26T01:06:08;97760.16;;;26.92;33.36
66857;BME280;53766;50.280;19.160;2022-07-26T01:08:35;97756.94;;;26.90;33.34
66857;BME280;53766;50.280;19.160;2022-07-26T01:11:03;97753.13;;;26.91;33.51
66857;BME280;53766;50.280;19.160;2022-07-26T01:13:30;97748.03;;;26.90;33.48
66857;BME280;53766;50.280;19.160;2022-07-26T01:16:02;97748.81;;;26.90;33.47
66857;BME280;53766;50.280;19.160;2022-07-26T01:18:30;97743.94;;;26.87;33.69
66857;BME280;53766;50.280;19.160;2022-07-26T01:20:58;97737.75;;;26.86;33.73
66857;BME280;53766;50.280;19.160;2022-07-26T01:23:40;97732.91;;;26.83;33.58
66857;BME280;53766;50.280;19.160;2022-07-26T01:26:09;97733.72;;;26.84;33.73
66857;BME280;53766;50.280;19.160;2022-07-26T01:28:38;97736.41;;;26.84;33.92
66857;BME280;53766;50.280;19.160;2022-07-26T01:31:07;97730.22;;;26.83;33.88
66857;BME280;53766;50.280;19.160;2022-07-26T01:33:35;97727.50;;;26.83;33.96
66857;BME280;53766;50.280;19.160;2022-07-26T01:36:02;97726.44;;;26.79;33.85
66857;BME280;53766;50.280;19.160;2022-07-26T01:38:30;97727.25;;;26.80;33.90
66857;BME280;53766;50.280;19.160;2022-07-26T01:40:57;97723.19;;;26.77;34.02
66857;BME280;53766;50.280;19.160;2022-07-26T01:43:25;97721.59;;;26.76;33.83
66857;BME280;53766;50.280;19.160;2022-07-26T01:45:54;97722.41;;;26.77;34.16
66857;BME280;53766;50.280;19.160;2022-07-26T01:48:22;97725.09;;;26.77;34.07
66857;BME280;53766;50.280;19.160;2022-07-26T01:50:49;97726.16;;;26.76;33.96
66857;BME280;53766;50.280;19.160;2022-07-26T01:53:17;97717.00;;;26.77;34.03
66857;BME280;53766;50.280;19.160;2022-07-26T01:55:45;97714.28;;;26.77;34.05
66857;BME280;53766;50.280;19.160;2022-07-26T01:58:12;97717.00;;;26.77;33.95
66857;BME280;53766;50.280;19.160;2022-07-26T02:00:40;97714.56;;;26.75;33.96
66857;BME280;53766;50.280;19.160;2022-07-26T02:03:08;97709.16;;;26.75;33.99
66857;BME280;53766;50.280;19.160;2022-07-26T02:05:36;97711.06;;;26.75;34.06
66857;BME280;53766;50.280;19.160;2022-07-26T02:08:04;97701.31;;;26.74;34.08
66857;BME280;53766;50.280;19.160;2022-07-26T02:10:33;97701.09;;;26.70;34.01
66857;BME280;53766;50.280;19.160;2022-07-26T02:13:19;97702.97;;;26.70;34.09
66857;BME280;53766;50.280;19.160;2022-07-26T02:15:46;97705.16;;;26.67;34.00
66857;BME280;53766;50.280;19.160;2022-07-26T02:18:14;97702.44;;;26.67;34.27
66857;BME280;53766;50.280;19.160;2022-07-26T02:20:42;97697.06;;;26.67;34.19
66857;BME280;53766;50.280;19.160;2022-07-26T02:23:11;97700.81;;;26.66;34.10
66857;BME280;53766;50.280;19.160;2022-07-26T02:25:39;97700.25;;;26.70;34.29
66857;BME280;53766;50.280;19.160;2022-07-26T02:28:07;97702.97;;;26.70;34.16
66857;BME280;53766;50.280;19.160;2022-07-26T02:30:35;97694.34;;;26.67;34.38
66857;BME280;53766;50.280;19.160;2022-07-26T02:33:05;97690.03;;;26.66;34.35
66857;BME280;53766;50.280;19.160;2022-07-26T02:35:33;97693.00;;;26.65;34.23
66857;BME280;53766;50.280;19.160;2022-07-26T02:38:02;97693.81;;;26.60;34.48
66857;BME280;53766;50.280;19.160;2022-07-26T02:40:31;97684.66;;;26.61;34.48
66857;BME280;53766;50.280;19.160;2022-07-26T02:43:01;97683.31;;;26.59;34.63
66857;BME280;53766;50.280;19.160;2022-07-26T02:45:28;97683.00;;;26.60;34.43
66857;BME280;53766;50.280;19.160;2022-07-26T02:47:56;97676.53;;;26.61;34.33
66857;BME280;53766;50.280;19.160;2022-07-26T02:50:25;97672.75;;;26.62;34.61
66857;BME280;53766;50.280;19.160;2022-07-26T02:52:53;97670.31;;;26.61;34.49
66857;BME280;53766;50.280;19.160;2022-07-26T02:55:23;97671.16;;;26.61;34.59
66857;BME280;53766;50.280;19.160;2022-07-26T02:57:51;97672.22;;;26.60;34.73
66857;BME280;53766;50.280;19.160;2022-07-26T03:00:22;97666.81;;;26.60;34.79
66857;BME280;53766;50.280;19.160;2022-07-26T03:02:50;97665.22;;;26.59;34.85
66857;BME280;53766;50.280;19.160;2022-07-26T03:05:19;97667.63;;;26.61;34.92
66857;BME280;53766;50.280;19.160;2022-07-26T03:07:46;97664.09;;;26.60;34.67
66857;BME280;53766;50.280;19.160;2022-07-26T03:10:15;97670.06;;;26.57;35.00
66857;BME280;53766;50.280;19.160;2022-07-26T03:12:42;97664.69;;;26.57;34.80
66857;BME280;53766;50.280;19.160;2022-07-26T03:15:10;97655.47;;;26.58;34.62
66857;BME280;53766;50.280;19.160;2022-07-26T03:17:38;97654.94;;;26.56;34.80
66857;BME280;53766;50.280;19.160;2022-07-26T03:20:06;97656.56;;;26.57;34.96
66857;BME280;53766;50.280;19.160;2022-07-26T03:22:34;97653.88;;;26.57;34.91
66857;BME280;53766;50.280;19.160;2022-07-26T03:25:02;97648.47;;;26.57;35.05
66857;BME280;53766;50.280;19.160;2022-07-26T03:27:29;97653.06;;;26.57;34.99
66857;BME280;53766;50.280;19.160;2022-07-26T03:29:57;97653.88;;;26.57;35.01
66857;BME280;53766;50.280;19.160;2022-07-26T03:32:25;97656.00;;;26.55;35.29
66857;BME280;53766;50.280;19.160;2022-07-26T03:34:53;97656.84;;;26.56;35.09
66857;BME280;53766;50.280;19.160;2022-07-26T03:37:21;97657.63;;;26.56;35.30
66857;BME280;53766;50.280;19.160;2022-07-26T03:39:49;97661.41;;;26.55;35.28
66857;BME280;53766;50.280;19.160;2022-07-26T03:42:17;97656.00;;;26.55;35.38
66857;BME280;53766;50.280;19.160;2022-07-26T03:44:45;97653.31;;;26.55;35.06
66857;BME280;53766;50.280;19.160;2022-07-26T03:47:12;97653.88;;;26.57;35.18
66857;BME280;53766;50.280;19.160;2022-07-26T03:49:40;97648.47;;;26.57;35.29
66857;BME280;53766;50.280;19.160;2022-07-26T03:52:07;97653.88;;;26.57;35.40
66857;BME280;53766;50.280;19.160;2022-07-26T03:54:36;97650.91;;;26.59;35.25
66857;BME280;53766;50.280;19.160;2022-07-26T03:57:04;97653.31;;;26.60;35.53
66857;BME280;53766;50.280;19.160;2022-07-26T03:59:32;97640.91;;;26.59;35.55
66857;BME280;53766;50.280;19.160;2022-07-26T04:02:01;97649.53;;;26.61;35.28
66857;BME280;53766;50.280;19.160;2022-07-26T04:04:29;97648.44;;;26.62;35.43
66857;BME280;53766;50.280;19.160;2022-07-26T04:06:58;97649.53;;;26.61;35.65
66857;BME280;53766;50.280;19.160;2022-07-26T04:09:30;97643.84;;;26.63;35.70
66857;BME280;53766;50.280;19.160;2022-07-26T04:11:57;97656.53;;;26.62;36.01
66857;BME280;53766;50.280;19.160;2022-07-26T04:14:25;97660.03;;;26.63;35.97
66857;BME280;53766;50.280;19.160;2022-07-26T04:16:52;97665.19;;;26.64;36.02
66857;BME280;53766;50.280;19.160;2022-07-26T04:19:20;97658.16;;;26.63;36.22
66857;BME280;53766;50.280;19.160;2022-07-26T04:21:48;97652.78;;;26.63;36.22
66857;BME280;53766;50.280;19.160;2022-07-26T04:24:15;97648.97;;;26.64;35.83
66857;BME280;53766;50.280;19.160;2022-07-26T04:26:43;97645.47;;;26.64;36.05
66857;BME280;53766;50.280;19.160;2022-07-26T04:29:10;97641.97;;;26.63;36.32
66857;BME280;53766;50.280;19.160;2022-07-26T04:31:38;97642.78;;;26.64;36.42
66857;BME280;53766;50.280;19.160;2022-07-26T04:34:06;97633.88;;;26.63;36.25
66857;BME280;53766;50.280;19.160;2022-07-26T04:36:34;97637.91;;;26.61;36.70
66857;BME280;53766;50.280;19.160;2022-07-26T04:39:02;97629.81;;;26.61;36.68
66857;BME280;53766;50.280;19.160;2022-07-26T04:41:30;97633.34;;;26.61;36.40
66857;BME280;53766;50.280;19.160;2022-07-26T04:43:57;97632.50;;;26.61;36.96
66857;BME280;53766;50.280;19.160;2022-07-26T04:46:25;97640.91;;;26.59;37.23
66857;BME280;53766;50.280;19.160;2022-07-26T04:48:52;97639.28;;;26.58;37.32
66857;BME280;53766;50.280;19.160;2022-07-26T04:51:20;97643.06;;;26.57;37.39
66857;BME280;53766;50.280;19.160;2022-07-26T04:53:47;97650.91;;;26.59;37.63
66857;BME280;53766;50.280;19.160;2022-07-26T04:56:15;97651.19;;;26.57;37.89
66857;BME280;53766;50.280;19.160;2022-07-26T04:58:44;97659.81;;;26.59;37.40
66857;BME280;53766;50.280;19.160;2022-07-26T05:01:11;97664.09;;;26.60;37.60
66857;BME280;53766;50.280;19.160;2022-07-26T05:03:39;97675.47;;;26.57;37.87
66857;BME280;53766;50.280;19.160;2022-07-26T05:06:06;97683.00;;;26.55;37.93
66857;BME280;53766;50.280;19.160;2022-07-26T05:08:34;97691.69;;;26.57;37.74
66857;BME280;53766;50.280;19.160;2022-07-26T05:11:02;97702.44;;;26.52;38.21
66857;BME280;53766;50.280;19.160;2022-07-26T05:13:30;97714.88;;;26.53;38.23
66857;BME280;53766;50.280;19.160;2022-07-26T05:15:58;97719.75;;;26.56;37.83
66857;BME280;53766;50.280;19.160;2022-07-26T05:18:26;97704.09;;;26.58;37.46
66857;BME280;53766;50.280;19.160;2022-07-26T05:20:58;97754.31;;;26.59;37.37
66857;BME280;53766;50.280;19.160;2022-07-26T05:23:25;97726.22;;;26.60;37.40
66857;BME280;53766;50.280;19.160;2022-07-26T05:25:53;97730.03;;;26.59;37.54
66857;BME280;53766;50.280;19.160;2022-07-26T05:28:21;97731.63;;;26.60;36.95
66857;BME280;53766;50.280;19.160;2022-07-26T05:30:49;97724.09;;;26.57;37.39
66857;BME280;53766;50.280;19.160;2022-07-26T05:33:17;97718.69;;;26.57;37.31
66857;BME280;53766;50.280;19.160;2022-07-26T05:35:45;97726.78;;;26.57;37.25
66857;BME280;53766;50.280;19.160;2022-07-26T05:38:12;97721.34;;;26.62;37.18
66857;BME280;53766;50.280;19.160;2022-07-26T05:40:40;97730.00;;;26.64;37.35
66857;BME280;53766;50.280;19.160;2022-07-26T05:43:10;97738.09;;;26.64;37.65
66857;BME280;53766;50.280;19.160;2022-07-26T05:45:38;97735.41;;;26.64;37.89
66857;BME280;53766;50.280;19.160;2022-07-26T05:48:06;97747.28;;;26.63;38.50
66857;BME280;53766;50.280;19.160;2022-07-26T05:50:33;97746.19;;;26.64;38.25
66857;BME280;53766;50.280;19.160;2022-07-26T05:53:01;97734.59;;;26.64;38.66
66857;BME280;53766;50.280;19.160;2022-07-26T05:55:29;97745.94;;;26.66;38.57
66857;BME280;53766;50.280;19.160;2022-07-26T05:57:57;97745.66;;;26.67;38.76
66857;BME280;53766;50.280;19.160;2022-07-26T06:00:24;97748.63;;;26.66;39.29
66857;BME280;53766;50.280;19.160;2022-07-26T06:02:52;97745.66;;;26.67;39.42
66857;BME280;53766;50.280;19.160;2022-07-26T06:05:20;97747.28;;;26.63;39.16
66857;BME280;53766;50.280;19.160;2022-07-26T06:07:48;97745.41;;;26.64;38.73
66857;BME280;53766;50.280;19.160;2022-07-26T06:10:17;97753.22;;;26.65;39.27
66857;BME280;53766;50.280;19.160;2022-07-26T06:12:44;97765.63;;;26.66;38.88
66857;BME280;53766;50.280;19.160;2022-07-26T06:15:13;97762.97;;;26.61;38.61
66857;BME280;53766;50.280;19.160;2022-07-26T06:17:42;97754.84;;;26.56;39.01
66857;BME280;53766;50.280;19.160;2022-07-26T06:20:10;97758.63;;;26.60;38.86
66857;BME280;53766;50.280;19.160;2022-07-26T06:22:37;97766.72;;;26.60;38.98
66857;BME280;53766;50.280;19.160;2022-07-26T06:25:06;97768.38;;;26.61;38.76
66857;BME280;53766;50.280;19.160;2022-07-26T06:27:36;97768.91;;;26.58;38.89
66857;BME280;53766;50.280;19.160;2022-07-26T06:30:06;97785.63;;;26.55;39.00
66857;BME280;53766;50.280;19.160;2022-07-26T06:32:34;97782.94;;;26.55;39.43
66857;BME280;53766;50.280;19.160;2022-07-26T06:35:02;97787.78;;;26.53;39.40
66857;BME280;53766;50.280;19.160;2022-07-26T06:37:30;97795.63;;;26.55;39.64
66857;BME280;53766;50.280;19.160;2022-07-26T06:39:57;97789.69;;;26.58;39.47
66857;BME280;53766;50.280;19.160;2022-07-26T06:42:25;97796.97;;;26.52;39.88
66857;BME280;53766;50.280;19.160;2022-07-26T06:44:53;97807.25;;;26.45;40.66
66857;BME280;53766;50.280;19.160;2022-07-26T06:47:21;97805.63;;;26.44;40.49
66857;BME280;53766;50.280;19.160;2022-07-26T06:49:49;97815.59;;;26.43;40.85
66857;BME280;53766;50.280;19.160;2022-07-26T06:52:16;97813.72;;;26.49;40.75
66857;BME280;53766;50.280;19.160;2022-07-26T06:54:44;97816.44;;;26.44;41.88
66857;BME280;53766;50.280;19.160;2022-07-26T06:57:11;97819.13;;;26.44;42.34
66857;BME280;53766;50.280;19.160;2022-07-26T06:59:39;97834.78;;;26.47;42.67
66857;BME280;53766;50.280;19.160;2022-07-26T07:02:07;97834.22;;;26.35;43.93
66857;BME280;53766;50.280;19.160;2022-07-26T07:04:35;97847.47;;;26.36;43.95
66857;BME280;53766;50.280;19.160;2022-07-26T07:07:02;97856.38;;;26.42;43.89
66857;BME280;53766;50.280;19.160;2022-07-26T07:09:34;97866.09;;;26.38;44.46
66857;BME280;53766;50.280;19.160;2022-07-26T07:12:03;97863.94;;;26.35;44.88
66857;BME280;53766;50.280;19.160;2022-07-26T07:14:37;97874.22;;;26.38;44.99
66857;BME280;53766;50.280;19.160;2022-07-26T07:17:05;97883.91;;;26.39;44.29
66857;BME280;53766;50.280;19.160;2022-07-26T07:19:40;97899.03;;;26.35;44.89
66857;BME280;53766;50.280;19.160;2022-07-26T07:22:07;97914.69;;;26.27;45.34
66857;BME280;53766;50.280;19.160;2022-07-26T07:24:39;97928.72;;;26.24;45.87
66857;BME280;53766;50.280;19.160;2022-07-26T07:27:08;97942.78;;;26.32;45.23
66857;BME280;53766;50.280;19.160;2022-07-26T07:29:37;97943.28;;;26.23;45.51
66857;BME280;53766;50.280;19.160;2022-07-26T07:32:07;97953.00;;;26.19;45.57
66857;BME280;53766;50.280;19.160;2022-07-26T07:34:46;97954.06;;;26.08;46.24
66857;BME280;53766;50.280;19.160;2022-07-26T07:37:15;97965.41;;;26.10;45.88
66857;BME280;53766;50.280;19.160;2022-07-26T07:39:43;97962.41;;;26.06;45.79
66857;BME280;53766;50.280;19.160;2022-07-26T07:42:17;97958.06;;;25.95;46.48
66857;BME280;53766;50.280;19.160;2022-07-26T07:44:45;97958.06;;;25.90;46.08
66857;BME280;53766;50.280;19.160;2022-07-26T07:47:13;97963.13;;;25.86;46.38
66857;BME280;53766;50.280;19.160;2022-07-26T07:49:41;97964.25;;;25.91;46.27
66857;BME280;53766;50.280;19.160;2022-07-26T07:52:09;97959.06;;;25.84;46.43
66857;BME280;53766;50.280;19.160;2022-07-26T07:54:37;97964.16;;;25.70;47.12
66857;BME280;53766;50.280;19.160;2022-07-26T07:57:04;97964.19;;;25.80;46.66
66857;BME280;53766;50.280;19.160;2022-07-26T07:59:32;97967.91;;;25.64;47.27
66857;BME280;53766;50.280;19.160;2022-07-26T08:02:05;97974.94;;;25.70;46.92
66857;BME280;53766;50.280;19.160;2022-07-26T08:04:33;97974.41;;;25.68;47.16
66857;BME280;53766;50.280;19.160;2022-07-26T08:07:01;97977.59;;;25.60;47.79
66857;BME280;53766;50.280;19.160;2022-07-26T08:09:29;97982.44;;;25.58;47.70
66857;BME280;53766;50.280;19.160;2022-07-26T08:12:01;97994.81;;;25.54;47.66
66857;BME280;53766;50.280;19.160;2022-07-26T08:14:28;97994.78;;;25.49;48.26
66857;BME280;53766;50.280;19.160;2022-07-26T08:16:56;98001.78;;;25.44;48.05
66857;BME280;53766;50.280;19.160;2022-07-26T08:19:24;97993.69;;;25.44;48.27
66857;BME280;53766;50.280;19.160;2022-07-26T08:21:58;97997.97;;;25.40;48.98
66857;BME280;53766;50.280;19.160;2022-07-26T08:24:26;98007.41;;;25.43;48.32
66857;BME280;53766;50.280;19.160;2022-07-26T08:26:53;98010.38;;;25.41;48.22
66857;BME280;53766;50.280;19.160;2022-07-26T08:29:21;98025.47;;;25.37;48.99
66857;BME280;53766;50.280;19.160;2022-07-26T08:31:49;98022.22;;;25.35;48.87
66857;BME280;53766;50.280;19.160;2022-07-26T08:34:19;98028.06;;;25.22;49.38
66857;BME280;53766;50.280;19.160;2022-07-26T08:36:48;98025.34;;;25.22;49.58
66857;BME280;53766;50.280;19.160;2022-07-26T08:39:35;98021.81;;;25.21;49.83
66857;BME280;53766;50.280;19.160;2022-07-26T08:42:03;98020.41;;;25.14;50.10
66857;BME280;53766;50.280;19.160;2022-07-26T08:44:32;98014.47;;;25.12;50.09
66857;BME280;53766;50.280;19.160;2022-07-26T08:47:00;98013.44;;;25.18;49.98
66857;BME280;53766;50.280;19.160;2022-07-26T08:49:28;98019.59;;;25.13;50.37
66857;BME280;53766;50.280;19.160;2022-07-26T08:51:55;98015.25;;;25.07;50.43
66857;BME280;53766;50.280;19.160;2022-07-26T08:54:25;98009.59;;;25.09;50.48
66857;BME280;53766;50.280;19.160;2022-07-26T08:56:53;98019.00;;;25.06;50.86
66857;BME280;53766;50.280;19.160;2022-07-26T08:59:22;98016.03;;;25.08;50.64
66857;BME280;53766;50.280;19.160;2022-07-26T09:02:03;98026.25;;;25.05;50.82
66857;BME280;53766;50.280;19.160;2022-07-26T09:04:33;98028.47;;;25.09;50.85
66857;BME280;53766;50.280;19.160;2022-07-26T09:07:16;98027.94;;;25.12;50.78
66857;BME280;53766;50.280;19.160;2022-07-26T09:12:23;98037.91;;;25.11;50.90
66857;BME280;53766;50.280;19.160;2022-07-26T09:14:52;98030.06;;;25.10;51.41
66857;BME280;53766;50.280;19.160;2022-07-26T09:17:21;98028.41;;;25.03;51.39
66857;BME280;53766;50.280;19.160;2022-07-26T09:20:10;98022.97;;;24.98;51.46
66857;BME280;53766;50.280;19.160;2022-07-26T09:23:03;98034.88;;;25.02;51.05
66857;BME280;53766;50.280;19.160;2022-07-26T09:25:33;98045.34;;;24.99;51.62
66857;BME280;53766;50.280;19.160;2022-07-26T09:28:02;98054.78;;;25.01;51.29
66857;BME280;53766;50.280;19.160;2022-07-26T09:30:31;98060.44;;;25.00;51.42
66857;BME280;53766;50.280;19.160;2022-07-26T09:33:05;98068.72;;;24.93;51.74
66857;BME280;53766;50.280;19.160;2022-07-26T09:35:35;98073.06;;;24.94;51.63
66857;BME280;53766;50.280;19.160;2022-07-26T09:38:19;98073.41;;;25.03;51.20
66857;BME280;53766;50.280;19.160;2022-07-26T09:40:46;98075.50;;;24.96;51.36
66857;BME280;53766;50.280;19.160;2022-07-26T09:43:18;98071.47;;;24.98;51.59
66857;BME280;53766;50.280;19.160;2022-07-26T09:46:04;98067.69;;;24.99;51.61
66857;BME280;53766;50.280;19.160;2022-07-26T09:48:34;98078.47;;;24.99;51.59
66857;BME280;53766;50.280;19.160;2022-07-26T09:54:03;98084.69;;;25.00;51.31
66857;BME280;53766;50.280;19.160;2022-07-26T09:56:48;98084.69;;;25.00;51.93
66857;BME280;53766;50.280;19.160;2022-07-26T09:59:18;98093.59;;;25.00;51.50
66857;BME280;53766;50.280;19.160;2022-07-26T10:01:47;98092.50;;;25.01;51.87
66857;BME280;53766;50.280;19.160;2022-07-26T10:04:15;98102.72;;;24.99;51.85
66857;BME280;53766;50.280;19.160;2022-07-26T10:06:43;98106.50;;;24.98;52.12
66857;BME280;53766;50.280;19.160;2022-07-26T10:09:11;98106.94;;;24.90;52.41
66857;BME280;53766;50.280;19.160;2022-07-26T10:16:59;98115.84;;;24.91;52.02
66857;BME280;53766;50.280;19.160;2022-07-26T10:19:40;98112.09;;;24.92;52.27
66857;BME280;53766;50.280;19.160;2022-07-26T10:22:28;98113.47;;;24.94;51.89
66857;BME280;53766;50.280;19.160;2022-07-26T10:27:47;98124.44;;;24.88;52.64
66857;BME280;53766;50.280;19.160;2022-07-26T10:35:40;98133.66;;;24.92;52.10
66857;BME280;53766;50.280;19.160;2022-07-26T10:38:12;98138.16;;;24.86;53.09
66857;BME280;53766;50.280;19.160;2022-07-26T10:41:02;98123.63;;;24.87;52.64
66857;BME280;53766;50.280;19.160;2022-07-26T10:43:30;98126.88;;;24.89;52.37
66857;BME280;53766;50.280;19.160;2022-07-26T10:49:05;98131.66;;;24.82;52.45
66857;BME280;53766;50.280;19.160;2022-07-26T10:51:35;98136.75;;;24.78;53.16
66857;BME280;53766;50.280;19.160;2022-07-26T10:54:11;98141.81;;;24.75;53.38
66857;BME280;53766;50.280;19.160;2022-07-26T10:56:40;98139.06;;;24.70;53.30
66857;BME280;53766;50.280;19.160;2022-07-26T10:59:08;98144.34;;;24.59;54.64
66857;BME280;53766;50.280;19.160;2022-07-26T11:01:41;98149.19;;;24.62;53.70
66857;BME280;53766;50.280;19.160;2022-07-26T11:06:46;98151.50;;;24.76;53.90
66857;BME280;53766;50.280;19.160;2022-07-26T11:09:15;98139.47;;;24.83;53.30
66857;BME280;53766;50.280;19.160;2022-07-26T11:11:47;98155.44;;;24.90;53.02
66857;BME280;53766;50.280;19.160;2022-07-26T11:14:15;98157.69;;;24.98;52.73
66857;BME280;53766;50.280;19.160;2022-07-26T11:16:49;98159.25;;;24.94;53.27
66857;BME280;53766;50.280;19.160;2022-07-26T11:19:23;98159.22;;;24.89;53.01
66857;BME280;53766;50.280;19.160;2022-07-26T11:21:56;98152.91;;;24.78;53.75
66857;BME280;53766;50.280;19.160;2022-07-26T11:24:26;98162.22;;;24.71;53.74
66857;BME280;53766;50.280;19.160;2022-07-26T11:26:56;98159.28;;;24.72;53.45
66857;BME280;53766;50.280;19.160;2022-07-26T11:29:30;98160.06;;;24.68;53.70
66857;BME280;53766;50.280;19.160;2022-07-26T11:32:21;98168.94;;;24.68;53.46
66857;BME280;53766;50.280;19.160;2022-07-26T11:35:03;98164.75;;;24.55;54.01
66857;BME280;53766;50.280;19.160;2022-07-26T11:37:31;98165.31;;;24.57;53.91
66857;BME280;53766;50.280;19.160;2022-07-26T11:39:59;98154.47;;;24.52;53.79
66857;BME280;53766;50.280;19.160;2022-07-26T11:42:26;98166.69;;;24.43;54.50
66857;BME280;53766;50.280;19.160;2022-07-26T11:44:54;98174.16;;;24.36;54.76
66857;BME280;53766;50.280;19.160;2022-07-26T11:47:22;98172.59;;;24.40;54.33
66857;BME280;53766;50.280;19.160;2022-07-26T11:49:53;98166.59;;;24.33;54.54
66857;BME280;53766;50.280;19.160;2022-07-26T11:52:41;98171.53;;;24.41;54.42
66857;BME280;53766;50.280;19.160;2022-07-26T11:55:08;98176.84;;;24.36;54.45
66857;BME280;53766;50.280;19.160;2022-07-26T11:57:36;98158.06;;;24.41;54.49
66857;BME280;53766;50.280;19.160;2022-07-26T12:00:04;98163.63;;;24.34;54.95
66857;BME280;53766;50.280;19.160;2022-07-26T12:02:32;98163.38;;;24.36;54.92
66857;BME280;53766;50.280;19.160;2022-07-26T12:07:59;98153.69;;;24.35;54.82
66857;BME280;53766;50.280;19.160;2022-07-26T12:10:29;98159.94;;;24.40;54.42
66857;BME280;53766;50.280;19.160;2022-07-26T12:13:11;98165.59;;;24.39;54.62
66857;BME280;53766;50.280;19.160;2022-07-26T12:15:49;98163.34;;;24.31;54.66
66857;BME280;53766;50.280;19.160;2022-07-26T12:18:29;98162.81;;;24.34;53.97
66857;BME280;53766;50.280;19.160;2022-07-26T12:21:02;98161.44;;;24.31;53.49
66857;BME280;53766;50.280;19.160;2022-07-26T12:23:45;98159.75;;;24.25;53.36
66857;BME280;53766;50.280;19.160;2022-07-26T12:26:24;98171.41;;;24.31;53.34
66857;BME280;53766;50.280;19.160;2022-07-26T12:28:52;98166.59;;;24.33;53.00
66857;BME280;53766;50.280;19.160;2022-07-26T12:31:28;98170.66;;;24.35;52.42
66857;BME280;53766;50.280;19.160;2022-07-26T12:33:57;98165.59;;;24.39;52.99
66857;BME280;53766;50.280;19.160;2022-07-26T12:36:25;98170.41;;;24.37;53.38
66857;BME280;53766;50.280;19.160;2022-07-26T12:38:57;98168.81;;;24.41;52.96
66857;BME280;53766;50.280;19.160;2022-07-26T12:41:36;98181.75;;;24.39;53.03
66857;BME280;53766;50.280;19.160;2022-07-26T12:44:05;98177.19;;;24.39;53.22
66857;BME280;53766;50.280;19.160;2022-07-26T12:46:34;98179.59;;;24.41;53.52
66857;BME280;53766;50.280;19.160;2022-07-26T12:49:02;98183.38;;;24.40;53.62
66857;BME280;53766;50.280;19.160;2022-07-26T12:51:30;98183.97;;;24.47;53.19
66857;BME280;53766;50.280;19.160;2022-07-26T12:53:58;98182.56;;;24.39;53.34
66857;BME280;53766;50.280;19.160;2022-07-26T12:56:25;98186.63;;;24.42;53.30
66857;BME280;53766;50.280;19.160;2022-07-26T12:58:53;98189.56;;;24.40;53.15
66857;BME280;53766;50.280;19.160;2022-07-26T13:01:28;98194.94;;;24.40;53.33
66857;BME280;53766;50.280;19.160;2022-07-26T13:03:56;98195.25;;;24.44;53.20
66857;BME280;53766;50.280;19.160;2022-07-26T13:06:24;98195.75;;;24.41;52.95
66857;BME280;53766;50.280;19.160;2022-07-26T13:08:51;98198.13;;;24.37;53.01
66857;BME280;53766;50.280;19.160;2022-07-26T13:11:20;98194.94;;;24.40;53.04
66857;BME280;53766;50.280;19.160;2022-07-26T13:13:47;98200.97;;;24.48;52.93
66857;BME280;53766;50.280;19.160;2022-07-26T13:16:16;98191.66;;;24.55;52.62
66857;BME280;53766;50.280;19.160;2022-07-26T13:18:43;98194.91;;;24.57;52.41
66857;BME280;53766;50.280;19.160;2022-07-26T13:21:11;98192.78;;;24.59;52.79
66857;BME280;53766;50.280;19.160;2022-07-26T13:23:38;98202.50;;;24.60;51.82
66857;BME280;53766;50.280;19.160;2022-07-26T13:26:06;98194.16;;;24.62;52.04
66857;BME280;53766;50.280;19.160;2022-07-26T13:28:36;98191.66;;;24.55;51.69
66857;BME280;53766;50.280;19.160;2022-07-26T13:31:04;98183.16;;;24.63;51.31